Time,TemperatureF,DewpointF,PressureIn,WindDirection,WindDirectionDegrees,WindSpeedMPH,WindSpeedGustMPH,Humidity,HourlyPrecipIn,Conditions,Clouds,dailyrainin,SoftwareType,DateUTC
2013-09-28 00:01:00,59.9,56.0,30.13,SSW,212,0.0,0.0,86,0.00,,,0.00,weatherlink.com 1.10,2013-09-28 04:01:00,
2013-09-28 00:16:00,59.4,56.0,30.13,SSW,212,0.0,0.0,88,0.00,,,0.00,weatherlink.com 1.10,2013-09-28 04:16:00,
2013-09-28 00:31:00,59.0,56.0,30.13,SSW,212,0.0,0.0,89,0.00,,,0.00,weatherlink.com 1.10,2013-09-28 04:31:00,
2013-09-28 00:46:00,58.8,56.0,30.13,SSW,212,0.0,0.0,89,0.00,,,0.00,weatherlink.com 1.10,2013-09-28 04:46:00,
2013-09-28 01:01:00,58.6,56.0,30.13,SSW,212,0.0,0.0,90,0.00,,,0.00,weatherlink.com 1.10,2013-09-28 05:01:00,
2013-09-28 01:16:00,58.2,56.0,30.13,SSW,212,0.0,0.0,91,0.00,,,0.00,weatherlink.com 1.10,2013-09-28 05:16:00,
2013-09-28 01:31:00,58.0,55.0,30.13,SSW,212,0.0,0.0,91,0.00,,,0.00,weatherlink.com 1.10,2013-09-28 05:31:00,
2013-09-28 01:46:00,57.5,55.0,30.13,SSW,212,0.0,0.0,91,0.00,,,0.00,weatherlink.com 1.10,2013-09-28 05:46:00,
2013-09-28 02:01:00,57.1,55.0,30.13,SSW,212,0.0,0.0,92,0.00,,,0.00,weatherlink.com 1.10,2013-09-28 06:01:00,
2013-09-28 02:16:00,57.0,55.0,30.13,SSW,212,0.0,0.0,93,0.00,,,0.00,weatherlink.com 1.10,2013-09-28 06:16:00,
2013-09-28 02:31:00,57.0,55.0,30.13,SSW,212,0.0,0.0,93,0.00,,,0.00,weatherlink.com 1.10,2013-09-28 06:31:00,
2013-09-28 02:46:00,56.7,55.0,30.14,SSW,212,0.0,0.0,94,0.00,,,0.00,weatherlink.com 1.10,2013-09-28 06:46:00,
2013-09-28 03:01:00,56.4,55.0,30.13,SSW,212,0.0,0.0,94,0.00,,,0.00,weatherlink.com 1.10,2013-09-28 07:01:00,
2013-09-28 03:16:00,56.1,55.0,30.13,SSW,212,0.0,0.0,95,0.00,,,0.00,weatherlink.com 1.10,2013-09-28 07:16:00,
2013-09-28 03:31:00,55.9,55.0,30.13,SSW,212,0.0,0.0,95,0.00,,,0.00,weatherlink.com 1.10,2013-09-28 07:31:00,
2013-09-28 03:46:00,56.0,55.0,30.13,SSW,212,0.0,0.0,95,0.00,,,0.00,weatherlink.com 1.10,2013-09-28 07:46:00,
2013-09-28 04:01:00,55.7,54.0,30.13,SSW,212,0.0,0.0,95,0.00,,,0.00,weatherlink.com 1.10,2013-09-28 08:01:00,
2013-09-28 04:31:00,55.3,54.0,30.13,SSW,212,0.0,0.0,95,0.00,,,0.00,weatherlink.com 1.10,2013-09-28 08:31:00,
2013-09-28 04:46:00,55.2,54.0,30.13,SSW,212,0.0,0.0,96,0.00,,,0.00,weatherlink.com 1.10,2013-09-28 08:46:00,
2013-09-28 05:01:00,55.2,54.0,30.14,SSW,212,0.0,0.0,96,0.00,,,0.00,weatherlink.com 1.10,2013-09-28 09:01:00,
2013-09-28 05:16:00,54.9,54.0,30.14,SSW,212,0.0,0.0,96,0.00,,,0.00,weatherlink.com 1.10,2013-09-28 09:16:00,
2013-09-28 05:31:00,54.6,54.0,30.14,SSW,212,0.0,0.0,96,0.00,,,0.00,weatherlink.com 1.10,2013-09-28 09:31:00,
2013-09-28 05:46:00,54.2,53.0,30.14,SSW,212,0.0,0.0,96,0.00,,,0.00,weatherlink.com 1.10,2013-09-28 09:46:00,
2013-09-28 06:02:00,54.0,53.0,30.15,SSW,212,0.0,0.0,96,0.00,,,0.00,weatherlink.com 1.10,2013-09-28 10:02:00,
2013-09-28 06:17:00,54.1,53.0,30.15,SSW,212,0.0,0.0,97,0.00,,,0.00,weatherlink.com 1.10,2013-09-28 10:17:00,
2013-09-28 06:32:00,54.2,53.0,30.16,SSW,212,0.0,0.0,97,0.00,,,0.00,weatherlink.com 1.10,2013-09-28 10:32:00,
2013-09-28 06:47:00,54.3,54.0,30.16,SSW,212,0.0,0.0,97,0.00,,,0.00,weatherlink.com 1.10,2013-09-28 10:47:00,
2013-09-28 07:02:00,53.9,53.0,30.16,SSW,212,0.0,0.0,96,0.00,,,0.00,weatherlink.com 1.10,2013-09-28 11:02:00,
2013-09-28 07:17:00,53.9,53.0,30.16,SSW,212,0.0,0.0,97,0.00,,,0.00,weatherlink.com 1.10,2013-09-28 11:17:00,
2013-09-28 07:32:00,53.8,53.0,30.17,SSW,212,0.0,0.0,97,0.00,,,0.00,weatherlink.com 1.10,2013-09-28 11:32:00,
2013-09-28 07:47:00,53.6,53.0,30.17,SSW,212,0.0,0.0,97,0.00,,,0.00,weatherlink.com 1.10,2013-09-28 11:47:00,
2013-09-28 08:02:00,53.6,53.0,30.17,SSW,212,0.0,0.0,97,0.00,,,0.00,weatherlink.com 1.10,2013-09-28 12:02:00,
2013-09-28 08:17:00,53.9,53.0,30.18,SSW,212,0.0,0.0,97,0.00,,,0.00,weatherlink.com 1.10,2013-09-28 12:17:00,
2013-09-28 08:32:00,55.0,54.0,30.18,SSW,212,0.0,0.0,97,0.00,,,0.00,weatherlink.com 1.10,2013-09-28 12:32:00,
2013-09-28 08:47:00,56.5,56.0,30.18,SSW,212,0.0,0.0,97,0.00,,,0.00,weatherlink.com 1.10,2013-09-28 12:47:00,
2013-09-28 09:02:00,58.7,58.0,30.18,SSW,212,0.0,0.0,97,0.00,,,0.00,weatherlink.com 1.10,2013-09-28 13:02:00,
2013-09-28 09:17:00,59.9,58.0,30.18,SSW,212,0.0,0.0,94,0.00,,,0.00,weatherlink.com 1.10,2013-09-28 13:17:00,
2013-09-28 09:32:00,61.5,59.0,30.19,East,100,0.0,0.0,90,0.00,,,0.00,weatherlink.com 1.10,2013-09-28 13:32:00,
2013-09-28 09:47:00,63.2,58.0,30.19,NW,312,0.0,1.0,84,0.00,,,0.00,weatherlink.com 1.10,2013-09-28 13:47:00,
2013-09-28 10:02:00,65.3,59.0,30.20,West,271,0.0,1.0,80,0.00,,,0.00,weatherlink.com 1.10,2013-09-28 14:02:00,
2013-09-28 10:32:00,69.0,61.0,30.19,WSW,254,1.0,1.0,76,0.00,,,0.00,weatherlink.com 1.10,2013-09-28 14:32:00,
2013-09-28 11:32:00,73.0,62.0,30.19,SW,232,2.0,5.0,69,0.00,,,0.00,weatherlink.com 1.10,2013-09-28 15:32:00,
2013-09-28 11:47:00,74.0,62.0,30.19,ESE,116,0.0,6.0,67,0.00,,,0.00,weatherlink.com 1.10,2013-09-28 15:47:00,
2013-09-28 12:02:00,75.3,63.0,30.18,SSE,153,0.0,7.0,65,0.00,,,0.00,weatherlink.com 1.10,2013-09-28 16:02:00,
2013-09-28 12:17:00,76.1,63.0,30.18,South,180,1.0,9.0,64,0.00,,,0.00,weatherlink.com 1.10,2013-09-28 16:17:00,
2013-09-28 12:48:00,77.7,63.0,30.18,West,262,1.0,7.0,60,0.00,,,0.00,weatherlink.com 1.10,2013-09-28 16:48:00,
2013-09-28 13:18:00,79.5,63.0,30.16,NNE,22,1.0,6.0,57,0.00,,,0.00,weatherlink.com 1.10,2013-09-28 17:18:00,
2013-09-28 13:33:00,80.3,63.0,30.16,East,92,0.0,6.0,55,0.00,,,0.00,weatherlink.com 1.10,2013-09-28 17:33:00,
2013-09-28 13:48:00,80.5,62.0,30.15,SSW,207,3.0,8.0,53,0.00,,,0.00,weatherlink.com 1.10,2013-09-28 17:48:00,
2013-09-28 14:03:00,80.7,61.0,30.14,WNW,285,3.0,6.0,52,0.00,,,0.00,weatherlink.com 1.10,2013-09-28 18:03:00,
2013-09-28 14:18:00,80.3,60.0,30.13,West,273,3.0,5.0,51,0.00,,,0.00,weatherlink.com 1.10,2013-09-28 18:18:00,
2013-09-28 14:33:00,81.2,62.0,30.13,West,281,4.0,7.0,52,0.00,,,0.00,weatherlink.com 1.10,2013-09-28 18:33:00,
2013-09-28 14:48:00,80.2,60.0,30.13,SW,225,1.0,8.0,51,0.00,,,0.00,weatherlink.com 1.10,2013-09-28 18:48:00,
2013-09-28 15:03:00,81.4,60.0,30.12,WSW,257,1.0,10.0,48,0.00,,,0.00,weatherlink.com 1.10,2013-09-28 19:03:00,
2013-09-28 15:18:00,81.7,59.0,30.12,SW,218,3.0,6.0,47,0.00,,,0.00,weatherlink.com 1.10,2013-09-28 19:18:00,
2013-09-28 15:33:00,82.4,61.0,30.11,South,184,0.0,6.0,48,0.00,,,0.00,weatherlink.com 1.10,2013-09-28 19:33:00,
2013-09-28 15:48:00,81.7,59.0,30.11,WSW,255,3.0,7.0,46,0.00,,,0.00,weatherlink.com 1.10,2013-09-28 19:48:00,
2013-09-28 16:03:00,82.6,59.0,30.11,WNW,289,3.0,7.0,45,0.00,,,0.00,weatherlink.com 1.10,2013-09-28 20:03:00,
2013-09-28 16:18:00,83.2,58.0,30.10,West,274,4.0,7.0,43,0.00,,,0.00,weatherlink.com 1.10,2013-09-28 20:18:00,
2013-09-28 16:33:00,82.5,60.0,30.10,SSE,163,5.0,6.0,46,0.00,,,0.00,weatherlink.com 1.10,2013-09-28 20:33:00,
2013-09-28 16:48:00,82.5,59.0,30.09,SW,222,1.0,8.0,45,0.00,,,0.00,weatherlink.com 1.10,2013-09-28 20:48:00,
2013-09-28 17:03:00,82.4,60.0,30.09,SW,231,2.0,5.0,46,0.00,,,0.00,weatherlink.com 1.10,2013-09-28 21:03:00,
2013-09-28 17:28:00,81.1,60.0,30.09,South,172,0.0,6.0,49,0.00,,,0.00,weatherlink.com 1.10,2013-09-28 21:28:00,
2013-09-28 17:33:00,80.9,60.0,30.09,SW,236,0.0,2.0,50,0.00,,,0.00,weatherlink.com 1.10,2013-09-28 21:33:00,
2013-09-28 17:48:00,81.0,61.0,30.09,SE,145,0.0,6.0,50,0.00,,,0.00,weatherlink.com 1.10,2013-09-28 21:48:00,
2013-09-28 18:03:00,81.4,60.0,30.09,South,176,2.0,6.0,49,0.00,,,0.00,weatherlink.com 1.10,2013-09-28 22:03:00,
2013-09-28 18:18:00,80.7,60.0,30.09,West,266,2.0,5.0,49,0.00,,,0.00,weatherlink.com 1.10,2013-09-28 22:18:00,
2013-09-28 18:33:00,80.5,61.0,30.08,SSE,162,0.0,3.0,52,0.00,,,0.00,weatherlink.com 1.10,2013-09-28 22:33:00,
2013-09-28 18:48:00,80.2,63.0,30.08,WSW,243,0.0,2.0,55,0.00,,,0.00,weatherlink.com 1.10,2013-09-28 22:48:00,
2013-09-28 19:03:00,78.6,63.0,30.08,SW,226,0.0,1.0,60,0.00,,,0.00,weatherlink.com 1.10,2013-09-28 23:03:00,
2013-09-28 19:18:00,75.2,62.0,30.08,SW,222,0.0,1.0,63,0.00,,,0.00,weatherlink.com 1.10,2013-09-28 23:18:00,
2013-09-28 19:33:00,73.8,63.0,30.08,SW,233,0.0,1.0,68,0.00,,,0.00,weatherlink.com 1.10,2013-09-28 23:33:00,
2013-09-28 19:48:00,73.2,62.0,30.08,SSW,207,0.0,1.0,68,0.00,,,0.00,weatherlink.com 1.10,2013-09-28 23:48:00,
2013-09-28 20:03:00,72.0,62.0,30.08,SW,236,0.0,1.0,71,0.00,,,0.00,weatherlink.com 1.10,2013-09-29 00:03:00,
2013-09-28 20:18:00,71.1,62.0,30.09,SSE,162,0.0,1.0,73,0.00,,,0.00,weatherlink.com 1.10,2013-09-29 00:18:00,
2013-09-28 20:33:00,70.7,62.0,30.09,SSE,165,0.0,0.0,74,0.00,,,0.00,weatherlink.com 1.10,2013-09-29 00:33:00,
2013-09-28 20:48:00,70.3,62.0,30.09,SSW,201,0.0,0.0,74,0.00,,,0.00,weatherlink.com 1.10,2013-09-29 00:48:00,
2013-09-28 21:03:00,69.5,61.0,30.09,SW,218,0.0,1.0,75,0.00,,,0.00,weatherlink.com 1.10,2013-09-29 01:03:00,
2013-09-28 21:18:00,69.0,61.0,30.09,SW,224,0.0,1.0,75,0.00,,,0.00,weatherlink.com 1.10,2013-09-29 01:18:00,
2013-09-28 21:33:00,68.3,60.0,30.09,SW,217,0.0,1.0,76,0.00,,,0.00,weatherlink.com 1.10,2013-09-29 01:33:00,
2013-09-28 22:03:00,66.2,60.0,30.09,SW,226,0.0,1.0,81,0.00,,,0.00,weatherlink.com 1.10,2013-09-29 02:03:00,
2013-09-28 22:33:00,65.3,60.0,30.09,SW,226,0.0,0.0,82,0.00,,,0.00,weatherlink.com 1.10,2013-09-29 02:33:00,
2013-09-28 22:48:00,64.9,60.0,30.09,SW,226,0.0,1.0,84,0.00,,,0.00,weatherlink.com 1.10,2013-09-29 02:48:00,
2013-09-28 23:03:00,64.5,60.0,30.09,SW,226,0.0,0.0,84,0.00,,,0.00,weatherlink.com 1.10,2013-09-29 03:03:00,
2013-09-28 23:18:00,64.5,59.0,30.09,SW,226,0.0,0.0,83,0.00,,,0.00,weatherlink.com 1.10,2013-09-29 03:18:00,
2013-09-28 23:33:00,64.0,60.0,30.09,SW,226,0.0,0.0,85,0.00,,,0.00,weatherlink.com 1.10,2013-09-29 03:33:00,
2013-09-28 23:48:00,63.1,59.0,30.09,SW,226,0.0,0.0,86,0.00,,,0.00,weatherlink.com 1.10,2013-09-29 03:48:00,